sensor_id;sensor_type;location;lat;lon;timestamp;P1;durP1;ratioP1;P2;durP2;ratioP2
2766;SDS011;1391;46.742;11.636;2022-09-12T00:01:23;0.97;;;0.80;;
2766;SDS011;1391;46.742;11.636;2022-09-12T00:03:52;0.80;;;0.50;;
2766;SDS011;1391;46.742;11.636;2022-09-12T00:06:22;0.40;;;0.40;;
2766;SDS011;1391;46.742;11.636;2022-09-12T00:08:53;3.80;;;1.73;;
2766;SDS011;1391;46.742;11.636;2022-09-12T00:11:22;3.67;;;0.80;;
2766;SDS011;1391;46.742;11.636;2022-09-12T00:13:50;0.50;;;0.50;;
2766;SDS011;1391;46.742;11.636;2022-09-12T00:16:23;0.90;;;0.63;;
2766;SDS011;1391;46.742;11.636;2022-09-12T00:18:52;0.60;;;0.60;;
2766;SDS011;1391;46.742;11.636;2022-09-12T00:21:19;1.07;;;0.50;;
2766;SDS011;1391;46.742;11.636;2022-09-12T00:23:49;1.13;;;0.60;;
2766;SDS011;1391;46.742;11.636;2022-09-12T00:26:17;1.50;;;0.70;;
2766;SDS011;1391;46.742;11.636;2022-09-12T00:28:45;1.77;;;0.70;;
2766;SDS011;1391;46.742;11.636;2022-09-12T00:31:14;3.40;;;0.93;;
2766;SDS011;1391;46.742;11.636;2022-09-12T00:33:44;1.17;;;0.63;;
2766;SDS011;1391;46.742;11.636;2022-09-12T00:36:12;0.60;;;0.60;;
2766;SDS011;1391;46.742;11.636;2022-09-12T00:38:42;1.37;;;0.50;;
2766;SDS011;1391;46.742;11.636;2022-09-12T00:41:12;2.20;;;0.80;;
2766;SDS011;1391;46.742;11.636;2022-09-12T00:43:43;0.50;;;0.50;;
2766;SDS011;1391;46.742;11.636;2022-09-12T00:46:15;1.57;;;0.70;;
2766;SDS011;1391;46.742;11.636;2022-09-12T00:48:59;0.50;;;0.50;;
2766;SDS011;1391;46.742;11.636;2022-09-12T00:51:30;3.57;;;0.70;;
2766;SDS011;1391;46.742;11.636;2022-09-12T00:54:02;0.47;;;0.47;;
2766;SDS011;1391;46.742;11.636;2022-09-12T00:56:34;2.07;;;0.67;;
2766;SDS011;1391;46.742;11.636;2022-09-12T00:59:05;1.37;;;0.57;;
2766;SDS011;1391;46.742;11.636;2022-09-12T01:01:37;4.57;;;0.77;;
2766;SDS011;1391;46.742;11.636;2022-09-12T01:04:07;1.40;;;0.50;;
2766;SDS011;1391;46.742;11.636;2022-09-12T01:06:35;2.00;;;0.60;;
2766;SDS011;1391;46.742;11.636;2022-09-12T01:09:06;1.67;;;0.67;;
2766;SDS011;1391;46.742;11.636;2022-09-12T01:11:35;0.50;;;0.50;;
2766;SDS011;1391;46.742;11.636;2022-09-12T01:14:04;2.60;;;0.60;;
2766;SDS011;1391;46.742;11.636;2022-09-12T01:16:33;3.67;;;0.63;;
2766;SDS011;1391;46.742;11.636;2022-09-12T01:19:04;0.67;;;0.57;;
2766;SDS011;1391;46.742;11.636;2022-09-12T01:21:53;0.50;;;0.50;;
2766;SDS011;1391;46.742;11.636;2022-09-12T01:27:44;0.70;;;0.60;;
2766;SDS011;1391;46.742;11.636;2022-09-12T01:30:25;0.60;;;0.50;;
2766;SDS011;1391;46.742;11.636;2022-09-12T01:33:18;1.87;;;0.70;;
2766;SDS011;1391;46.742;11.636;2022-09-12T01:39:03;0.77;;;0.40;;
2766;SDS011;1391;46.742;11.636;2022-09-12T01:41:40;0.80;;;0.80;;
2766;SDS011;1391;46.742;11.636;2022-09-12T01:44:20;0.70;;;0.50;;
2766;SDS011;1391;46.742;11.636;2022-09-12T01:47:01;0.50;;;0.50;;
2766;SDS011;1391;46.742;11.636;2022-09-12T01:49:35;0.53;;;0.53;;
2766;SDS011;1391;46.742;11.636;2022-09-12T01:52:11;0.77;;;0.50;;
2766;SDS011;1391;46.742;11.636;2022-09-12T01:54:44;0.53;;;0.53;;
2766;SDS011;1391;46.742;11.636;2022-09-12T01:57:17;0.77;;;0.77;;
2766;SDS011;1391;46.742;11.636;2022-09-12T01:59:51;0.67;;;0.67;;
2766;SDS011;1391;46.742;11.636;2022-09-12T02:02:26;0.67;;;0.67;;
2766;SDS011;1391;46.742;11.636;2022-09-12T02:04:59;2.73;;;1.37;;
2766;SDS011;1391;46.742;11.636;2022-09-12T02:07:34;0.53;;;0.53;;
2766;SDS011;1391;46.742;11.636;2022-09-12T02:10:05;0.47;;;0.47;;
2766;SDS011;1391;46.742;11.636;2022-09-12T02:12:38;3.17;;;0.90;;
2766;SDS011;1391;46.742;11.636;2022-09-12T02:15:10;2.20;;;0.70;;
2766;SDS011;1391;46.742;11.636;2022-09-12T02:17:42;3.50;;;0.90;;
2766;SDS011;1391;46.742;11.636;2022-09-12T02:20:15;1.20;;;0.80;;
2766;SDS011;1391;46.742;11.636;2022-09-12T02:22:46;0.57;;;0.57;;
2766;SDS011;1391;46.742;11.636;2022-09-12T02:25:15;0.60;;;0.60;;
2766;SDS011;1391;46.742;11.636;2022-09-12T02:27:45;1.27;;;0.80;;
2766;SDS011;1391;46.742;11.636;2022-09-12T02:30:16;1.83;;;1.00;;
2766;SDS011;1391;46.742;11.636;2022-09-12T02:32:48;1.60;;;0.97;;
2766;SDS011;1391;46.742;11.636;2022-09-12T02:35:29;1.53;;;0.63;;
2766;SDS011;1391;46.742;11.636;2022-09-12T02:38:01;1.90;;;0.83;;
2766;SDS011;1391;46.742;11.636;2022-09-12T02:40:33;2.23;;;0.67;;
2766;SDS011;1391;46.742;11.636;2022-09-12T02:43:01;0.77;;;0.70;;
2766;SDS011;1391;46.742;11.636;2022-09-12T02:45:30;0.53;;;0.53;;
2766;SDS011;1391;46.742;11.636;2022-09-12T02:48:01;0.77;;;0.50;;
2766;SDS011;1391;46.742;11.636;2022-09-12T02:50:33;0.63;;;0.63;;
2766;SDS011;1391;46.742;11.636;2022-09-12T02:53:01;0.60;;;0.60;;
2766;SDS011;1391;46.742;11.636;2022-09-12T02:55:29;3.47;;;0.53;;
2766;SDS011;1391;46.742;11.636;2022-09-12T02:57:58;2.53;;;0.80;;
2766;SDS011;1391;46.742;11.636;2022-09-12T03:00:27;0.80;;;0.80;;
2766;SDS011;1391;46.742;11.636;2022-09-12T03:03:08;0.60;;;0.60;;
2766;SDS011;1391;46.742;11.636;2022-09-12T03:05:51;1.43;;;0.70;;
2766;SDS011;1391;46.742;11.636;2022-09-12T03:08:29;0.57;;;0.57;;
2766;SDS011;1391;46.742;11.636;2022-09-12T03:11:29;1.13;;;1.00;;
2766;SDS011;1391;46.742;11.636;2022-09-12T03:14:18;0.80;;;0.80;;
2766;SDS011;1391;46.742;11.636;2022-09-12T03:17:02;0.80;;;0.60;;
2766;SDS011;1391;46.742;11.636;2022-09-12T03:19:51;6.00;;;0.80;;
2766;SDS011;1391;46.742;11.636;2022-09-12T03:22:27;1.73;;;0.60;;
2766;SDS011;1391;46.742;11.636;2022-09-12T03:24:59;2.47;;;0.97;;
2766;SDS011;1391;46.742;11.636;2022-09-12T03:27:35;0.73;;;0.73;;
2766;SDS011;1391;46.742;11.636;2022-09-12T03:30:06;2.87;;;1.30;;
2766;SDS011;1391;46.742;11.636;2022-09-12T03:32:40;2.53;;;1.00;;
2766;SDS011;1391;46.742;11.636;2022-09-12T03:35:14;2.30;;;1.00;;
2766;SDS011;1391;46.742;11.636;2022-09-12T03:37:44;1.13;;;1.03;;
2766;SDS011;1391;46.742;11.636;2022-09-12T03:40:13;2.60;;;1.20;;
2766;SDS011;1391;46.742;11.636;2022-09-12T03:42:40;1.23;;;0.87;;
2766;SDS011;1391;46.742;11.636;2022-09-12T03:45:08;5.57;;;0.80;;
2766;SDS011;1391;46.742;11.636;2022-09-12T03:47:36;0.70;;;0.70;;
2766;SDS011;1391;46.742;11.636;2022-09-12T03:50:03;4.00;;;0.70;;
2766;SDS011;1391;46.742;11.636;2022-09-12T03:52:33;3.10;;;0.90;;
2766;SDS011;1391;46.742;11.636;2022-09-12T03:55:01;0.57;;;0.57;;
2766;SDS011;1391;46.742;11.636;2022-09-12T03:57:28;0.70;;;0.70;;
2766;SDS011;1391;46.742;11.636;2022-09-12T03:59:55;1.40;;;0.77;;
2766;SDS011;1391;46.742;11.636;2022-09-12T04:02:22;2.30;;;0.80;;
2766;SDS011;1391;46.742;11.636;2022-09-12T04:04:49;1.47;;;1.10;;
2766;SDS011;1391;46.742;11.636;2022-09-12T04:07:17;0.60;;;0.60;;
2766;SDS011;1391;46.742;11.636;2022-09-12T04:09:45;2.47;;;0.50;;
2766;SDS011;1391;46.742;11.636;2022-09-12T04:12:15;0.87;;;0.70;;
2766;SDS011;1391;46.742;11.636;2022-09-12T04:14:42;0.53;;;0.53;;
2766;SDS011;1391;46.742;11.636;2022-09-12T04:17:12;0.60;;;0.60;;
2766;SDS011;1391;46.742;11.636;2022-09-12T04:19:39;1.23;;;0.50;;
2766;SDS011;1391;46.742;11.636;2022-09-12T04:22:07;0.77;;;0.70;;
2766;SDS011;1391;46.742;11.636;2022-09-12T04:24:34;2.00;;;0.70;;
2766;SDS011;1391;46.742;11.636;2022-09-12T04:27:06;0.63;;;0.60;;
2766;SDS011;1391;46.742;11.636;2022-09-12T04:29:33;1.17;;;0.70;;
2766;SDS011;1391;46.742;11.636;2022-09-12T04:32:00;0.73;;;0.70;;
2766;SDS011;1391;46.742;11.636;2022-09-12T04:34:29;0.63;;;0.60;;
2766;SDS011;1391;46.742;11.636;2022-09-12T04:36:56;0.90;;;0.80;;
2766;SDS011;1391;46.742;11.636;2022-09-12T04:39:23;1.00;;;0.80;;
2766;SDS011;1391;46.742;11.636;2022-09-12T04:41:51;2.30;;;0.70;;
2766;SDS011;1391;46.742;11.636;2022-09-12T04:44:19;1.23;;;0.70;;
2766;SDS011;1391;46.742;11.636;2022-09-12T04:46:47;1.43;;;0.70;;
2766;SDS011;1391;46.742;11.636;2022-09-12T04:49:14;2.10;;;0.70;;
2766;SDS011;1391;46.742;11.636;2022-09-12T04:51:43;1.27;;;1.00;;
2766;SDS011;1391;46.742;11.636;2022-09-12T04:54:12;1.57;;;0.63;;
2766;SDS011;1391;46.742;11.636;2022-09-12T04:56:42;0.97;;;0.87;;
2766;SDS011;1391;46.742;11.636;2022-09-12T04:59:11;0.70;;;0.70;;
2766;SDS011;1391;46.742;11.636;2022-09-12T05:01:41;0.93;;;0.80;;
2766;SDS011;1391;46.742;11.636;2022-09-12T05:04:09;1.00;;;0.93;;
2766;SDS011;1391;46.742;11.636;2022-09-12T05:06:38;1.90;;;0.80;;
2766;SDS011;1391;46.742;11.636;2022-09-12T05:09:07;3.53;;;1.00;;
2766;SDS011;1391;46.742;11.636;2022-09-12T05:11:39;1.70;;;1.17;;
2766;SDS011;1391;46.742;11.636;2022-09-12T05:14:08;0.90;;;0.73;;
2766;SDS011;1391;46.742;11.636;2022-09-12T05:16:37;1.43;;;0.80;;
2766;SDS011;1391;46.742;11.636;2022-09-12T05:19:06;4.60;;;1.50;;
2766;SDS011;1391;46.742;11.636;2022-09-12T05:21:36;1.63;;;1.10;;
2766;SDS011;1391;46.742;11.636;2022-09-12T05:24:03;2.30;;;0.80;;
2766;SDS011;1391;46.742;11.636;2022-09-12T05:26:31;3.17;;;1.00;;
2766;SDS011;1391;46.742;11.636;2022-09-12T05:28:58;3.20;;;0.77;;
2766;SDS011;1391;46.742;11.636;2022-09-12T05:31:26;6.90;;;1.37;;
2766;SDS011;1391;46.742;11.636;2022-09-12T05:33:54;1.40;;;0.90;;
2766;SDS011;1391;46.742;11.636;2022-09-12T05:36:23;1.87;;;1.40;;
2766;SDS011;1391;46.742;11.636;2022-09-12T05:38:53;2.93;;;1.23;;
2766;SDS011;1391;46.742;11.636;2022-09-12T05:41:21;1.10;;;1.00;;
2766;SDS011;1391;46.742;11.636;2022-09-12T05:43:50;5.43;;;1.40;;
2766;SDS011;1391;46.742;11.636;2022-09-12T05:46:19;2.57;;;1.03;;
2766;SDS011;1391;46.742;11.636;2022-09-12T05:48:49;2.40;;;1.00;;
2766;SDS011;1391;46.742;11.636;2022-09-12T05:51:17;3.33;;;1.90;;
2766;SDS011;1391;46.742;11.636;2022-09-12T05:53:49;6.77;;;1.50;;
2766;SDS011;1391;46.742;11.636;2022-09-12T05:56:18;2.27;;;1.40;;
2766;SDS011;1391;46.742;11.636;2022-09-12T05:58:51;3.43;;;1.40;;
2766;SDS011;1391;46.742;11.636;2022-09-12T06:01:21;5.03;;;1.33;;
2766;SDS011;1391;46.742;11.636;2022-09-12T06:03:49;4.00;;;1.40;;
2766;SDS011;1391;46.742;11.636;2022-09-12T06:06:19;7.23;;;1.50;;
2766;SDS011;1391;46.742;11.636;2022-09-12T06:08:50;1.53;;;1.33;;
2766;SDS011;1391;46.742;11.636;2022-09-12T06:11:20;1.40;;;1.27;;
2766;SDS011;1391;46.742;11.636;2022-09-12T06:13:49;2.70;;;1.43;;
2766;SDS011;1391;46.742;11.636;2022-09-12T06:16:17;2.17;;;1.57;;
2766;SDS011;1391;46.742;11.636;2022-09-12T06:18:46;2.80;;;1.73;;
2766;SDS011;1391;46.742;11.636;2022-09-12T06:21:15;1.77;;;1.23;;
2766;SDS011;1391;46.742;11.636;2022-09-12T06:23:43;2.17;;;1.10;;
2766;SDS011;1391;46.742;11.636;2022-09-12T06:26:14;3.97;;;1.20;;
2766;SDS011;1391;46.742;11.636;2022-09-12T06:28:45;3.00;;;1.10;;
2766;SDS011;1391;46.742;11.636;2022-09-12T06:31:13;4.93;;;1.17;;
2766;SDS011;1391;46.742;11.636;2022-09-12T06:33:43;1.63;;;1.00;;
2766;SDS011;1391;46.742;11.636;2022-09-12T06:36:12;2.90;;;1.00;;
2766;SDS011;1391;46.742;11.636;2022-09-12T06:38:42;2.10;;;1.20;;
2766;SDS011;1391;46.742;11.636;2022-09-12T06:41:12;3.00;;;1.20;;
2766;SDS011;1391;46.742;11.636;2022-09-12T06:43:41;2.17;;;1.00;;
2766;SDS011;1391;46.742;11.636;2022-09-12T06:46:09;6.13;;;1.10;;
2766;SDS011;1391;46.742;11.636;2022-09-12T06:48:37;2.63;;;1.10;;
2766;SDS011;1391;46.742;11.636;2022-09-12T06:51:05;2.10;;;1.40;;
2766;SDS011;1391;46.742;11.636;2022-09-12T06:53:36;4.50;;;1.27;;
2766;SDS011;1391;46.742;11.636;2022-09-12T06:56:04;1.20;;;1.10;;
2766;SDS011;1391;46.742;11.636;2022-09-12T06:58:36;3.23;;;1.20;;
2766;SDS011;1391;46.742;11.636;2022-09-12T07:01:04;1.10;;;0.97;;
2766;SDS011;1391;46.742;11.636;2022-09-12T07:03:33;3.87;;;0.93;;
2766;SDS011;1391;46.742;11.636;2022-09-12T07:06:02;2.23;;;1.10;;
2766;SDS011;1391;46.742;11.636;2022-09-12T07:08:31;3.40;;;1.03;;
2766;SDS011;1391;46.742;11.636;2022-09-12T07:11:07;1.00;;;0.90;;
2766;SDS011;1391;46.742;11.636;2022-09-12T07:13:37;1.37;;;0.93;;
2766;SDS011;1391;46.742;11.636;2022-09-12T07:16:06;2.03;;;1.00;;
2766;SDS011;1391;46.742;11.636;2022-09-12T07:18:34;0.83;;;0.73;;
2766;SDS011;1391;46.742;11.636;2022-09-12T07:21:03;1.00;;;0.87;;
2766;SDS011;1391;46.742;11.636;2022-09-12T07:23:32;2.13;;;1.00;;
2766;SDS011;1391;46.742;11.636;2022-09-12T07:26:00;1.40;;;1.03;;
2766;SDS011;1391;46.742;11.636;2022-09-12T07:28:29;2.07;;;0.90;;
2766;SDS011;1391;46.742;11.636;2022-09-12T07:31:05;3.07;;;1.00;;
2766;SDS011;1391;46.742;11.636;2022-09-12T07:33:34;2.50;;;1.17;;
2766;SDS011;1391;46.742;11.636;2022-09-12T07:36:02;1.47;;;1.37;;
2766;SDS011;1391;46.742;11.636;2022-09-12T07:38:31;1.60;;;1.00;;
2766;SDS011;1391;46.742;11.636;2022-09-12T07:40:58;3.13;;;1.37;;
2766;SDS011;1391;46.742;11.636;2022-09-12T07:43:25;1.33;;;0.93;;
2766;SDS011;1391;46.742;11.636;2022-09-12T07:45:53;1.17;;;0.93;;
2766;SDS011;1391;46.742;11.636;2022-09-12T07:48:22;0.90;;;0.77;;
2766;SDS011;1391;46.742;11.636;2022-09-12T07:50:56;1.17;;;0.80;;
2766;SDS011;1391;46.742;11.636;2022-09-12T07:53:24;2.00;;;0.97;;
2766;SDS011;1391;46.742;11.636;2022-09-12T07:55:53;1.43;;;0.73;;
2766;SDS011;1391;46.742;11.636;2022-09-12T07:58:21;0.77;;;0.70;;
2766;SDS011;1391;46.742;11.636;2022-09-12T08:00:48;1.70;;;1.00;;
2766;SDS011;1391;46.742;11.636;2022-09-12T08:03:16;2.03;;;1.00;;
2766;SDS011;1391;46.742;11.636;2022-09-12T08:05:45;0.97;;;0.63;;
2766;SDS011;1391;46.742;11.636;2022-09-12T08:08:12;0.70;;;0.67;;
2766;SDS011;1391;46.742;11.636;2022-09-12T08:10:39;2.10;;;0.83;;
2766;SDS011;1391;46.742;11.636;2022-09-12T08:13:07;0.97;;;0.70;;
2766;SDS011;1391;46.742;11.636;2022-09-12T08:15:34;1.13;;;0.70;;
2766;SDS011;1391;46.742;11.636;2022-09-12T08:18:01;0.97;;;0.90;;
2766;SDS011;1391;46.742;11.636;2022-09-12T08:20:28;0.93;;;0.60;;
2766;SDS011;1391;46.742;11.636;2022-09-12T08:22:57;0.70;;;0.70;;
2766;SDS011;1391;46.742;11.636;2022-09-12T08:25:24;5.00;;;0.70;;
2766;SDS011;1391;46.742;11.636;2022-09-12T08:27:52;1.03;;;0.70;;
2766;SDS011;1391;46.742;11.636;2022-09-12T08:30:19;0.60;;;0.60;;
2766;SDS011;1391;46.742;11.636;2022-09-12T08:32:47;2.63;;;0.80;;
2766;SDS011;1391;46.742;11.636;2022-09-12T08:35:14;0.50;;;0.50;;
2766;SDS011;1391;46.742;11.636;2022-09-12T08:37:41;3.37;;;0.70;;
2766;SDS011;1391;46.742;11.636;2022-09-12T08:40:13;2.10;;;0.80;;
2766;SDS011;1391;46.742;11.636;2022-09-12T08:42:46;1.00;;;0.70;;
2766;SDS011;1391;46.742;11.636;2022-09-12T08:45:21;1.30;;;0.70;;
2766;SDS011;1391;46.742;11.636;2022-09-12T08:47:52;6.00;;;1.03;;
2766;SDS011;1391;46.742;11.636;2022-09-12T08:50:21;4.80;;;0.70;;
2766;SDS011;1391;46.742;11.636;2022-09-12T08:52:50;2.73;;;0.57;;
2766;SDS011;1391;46.742;11.636;2022-09-12T08:55:28;3.67;;;0.80;;
2766;SDS011;1391;46.742;11.636;2022-09-12T08:57:59;1.47;;;0.60;;
2766;SDS011;1391;46.742;11.636;2022-09-12T09:00:37;4.60;;;0.80;;
2766;SDS011;1391;46.742;11.636;2022-09-12T09:06:38;2.70;;;0.80;;
2766;SDS011;1391;46.742;11.636;2022-09-12T09:09:25;2.07;;;0.80;;
2766;SDS011;1391;46.742;11.636;2022-09-12T09:12:11;2.77;;;0.80;;
2766;SDS011;1391;46.742;11.636;2022-09-12T09:14:53;1.20;;;0.60;;
2766;SDS011;1391;46.742;11.636;2022-09-12T09:17:34;0.93;;;0.60;;
2766;SDS011;1391;46.742;11.636;2022-09-12T09:20:10;3.87;;;0.63;;
2766;SDS011;1391;46.742;11.636;2022-09-12T09:22:47;1.83;;;0.80;;
2766;SDS011;1391;46.742;11.636;2022-09-12T09:25:18;0.50;;;0.50;;
2766;SDS011;1391;46.742;11.636;2022-09-12T09:27:52;1.90;;;0.70;;
2766;SDS011;1391;46.742;11.636;2022-09-12T09:30:25;1.47;;;0.60;;
2766;SDS011;1391;46.742;11.636;2022-09-12T09:32:53;1.70;;;0.70;;
2766;SDS011;1391;46.742;11.636;2022-09-12T09:35:26;0.80;;;0.60;;
2766;SDS011;1391;46.742;11.636;2022-09-12T09:38:07;2.47;;;0.60;;
2766;SDS011;1391;46.742;11.636;2022-09-12T09:40:52;3.13;;;0.83;;
2766;SDS011;1391;46.742;11.636;2022-09-12T09:43:34;1.93;;;0.70;;
2766;SDS011;1391;46.742;11.636;2022-09-12T09:46:03;0.73;;;0.67;;
2766;SDS011;1391;46.742;11.636;2022-09-12T09:48:32;4.17;;;0.60;;
2766;SDS011;1391;46.742;11.636;2022-09-12T09:51:02;0.93;;;0.60;;
2766;SDS011;1391;46.742;11.636;2022-09-12T09:53:34;2.87;;;0.80;;
2766;SDS011;1391;46.742;11.636;2022-09-12T09:56:09;2.93;;;0.80;;
2766;SDS011;1391;46.742;11.636;2022-09-12T09:58:42;0.53;;;0.53;;
2766;SDS011;1391;46.742;11.636;2022-09-12T10:01:13;1.53;;;0.60;;
2766;SDS011;1391;46.742;11.636;2022-09-12T10:03:47;4.87;;;1.13;;
2766;SDS011;1391;46.742;11.636;2022-09-12T10:06:28;0.40;;;0.40;;
2766;SDS011;1391;46.742;11.636;2022-09-12T10:11:46;0.87;;;0.60;;
2766;SDS011;1391;46.742;11.636;2022-09-12T10:17:23;0.50;;;0.50;;
2766;SDS011;1391;46.742;11.636;2022-09-12T10:19:54;1.63;;;0.50;;
2766;SDS011;1391;46.742;11.636;2022-09-12T10:22:22;1.63;;;0.60;;
2766;SDS011;1391;46.742;11.636;2022-09-12T10:24:53;2.00;;;0.70;;
2766;SDS011;1391;46.742;11.636;2022-09-12T10:27:24;1.67;;;0.60;;
2766;SDS011;1391;46.742;11.636;2022-09-12T10:29:59;0.93;;;0.60;;
2766;SDS011;1391;46.742;11.636;2022-09-12T10:32:33;1.13;;;0.50;;
2766;SDS011;1391;46.742;11.636;2022-09-12T10:35:04;0.67;;;0.67;;
2766;SDS011;1391;46.742;11.636;2022-09-12T10:37:48;1.13;;;0.70;;
2766;SDS011;1391;46.742;11.636;2022-09-12T10:40:20;1.83;;;0.53;;
2766;SDS011;1391;46.742;11.636;2022-09-12T10:42:50;1.43;;;0.70;;
2766;SDS011;1391;46.742;11.636;2022-09-12T10:45:21;5.80;;;0.63;;
2766;SDS011;1391;46.742;11.636;2022-09-12T10:47:53;0.73;;;0.50;;
2766;SDS011;1391;46.742;11.636;2022-09-12T10:50:24;1.13;;;0.60;;
2766;SDS011;1391;46.742;11.636;2022-09-12T10:53:09;0.60;;;0.60;;
2766;SDS011;1391;46.742;11.636;2022-09-12T10:55:49;0.40;;;0.40;;
2766;SDS011;1391;46.742;11.636;2022-09-12T11:01:39;0.53;;;0.40;;
2766;SDS011;1391;46.742;11.636;2022-09-12T11:04:16;5.07;;;0.97;;
2766;SDS011;1391;46.742;11.636;2022-09-12T11:07:02;2.00;;;0.70;;
2766;SDS011;1391;46.742;11.636;2022-09-12T11:09:59;2.20;;;0.30;;
2766;SDS011;1391;46.742;11.636;2022-09-12T11:12:40;1.20;;;0.50;;
2766;SDS011;1391;46.742;11.636;2022-09-12T11:15:18;0.70;;;0.50;;
2766;SDS011;1391;46.742;11.636;2022-09-12T11:18:13;2.50;;;0.67;;
2766;SDS011;1391;46.742;11.636;2022-09-12T11:20:58;0.53;;;0.50;;
2766;SDS011;1391;46.742;11.636;2022-09-12T11:23:52;0.87;;;0.60;;
2766;SDS011;1391;46.742;11.636;2022-09-12T11:26:48;1.40;;;0.43;;
2766;SDS011;1391;46.742;11.636;2022-09-12T11:29:38;0.87;;;0.33;;
2766;SDS011;1391;46.742;11.636;2022-09-12T11:32:23;0.60;;;0.37;;
2766;SDS011;1391;46.742;11.636;2022-09-12T11:35:32;1.17;;;0.50;;
2766;SDS011;1391;46.742;11.636;2022-09-12T11:38:13;1.70;;;0.43;;
2766;SDS011;1391;46.742;11.636;2022-09-12T11:41:03;1.37;;;0.60;;
2766;SDS011;1391;46.742;11.636;2022-09-12T11:43:36;3.30;;;0.50;;
2766;SDS011;1391;46.742;11.636;2022-09-12T11:46:09;0.50;;;0.50;;
2766;SDS011;1391;46.742;11.636;2022-09-12T11:48:44;0.50;;;0.47;;
2766;SDS011;1391;46.742;11.636;2022-09-12T11:51:24;2.63;;;0.40;;
2766;SDS011;1391;46.742;11.636;2022-09-12T11:54:01;0.47;;;0.47;;
2766;SDS011;1391;46.742;11.636;2022-09-12T11:56:40;1.07;;;0.60;;
2766;SDS011;1391;46.742;11.636;2022-09-12T11:59:14;1.50;;;0.40;;
2766;SDS011;1391;46.742;11.636;2022-09-12T12:01:56;0.40;;;0.40;;
2766;SDS011;1391;46.742;11.636;2022-09-12T12:04:28;3.27;;;0.60;;
2766;SDS011;1391;46.742;11.636;2022-09-12T12:07:07;1.63;;;0.53;;
2766;SDS011;1391;46.742;11.636;2022-09-12T12:09:42;0.60;;;0.60;;
2766;SDS011;1391;46.742;11.636;2022-09-12T12:12:14;0.60;;;0.40;;
2766;SDS011;1391;46.742;11.636;2022-09-12T12:14:47;1.67;;;0.70;;
2766;SDS011;1391;46.742;11.636;2022-09-12T12:17:17;1.60;;;0.43;;
2766;SDS011;1391;46.742;11.636;2022-09-12T12:19:47;0.80;;;0.40;;
2766;SDS011;1391;46.742;11.636;2022-09-12T12:22:26;1.53;;;0.57;;
2766;SDS011;1391;46.742;11.636;2022-09-12T12:24:55;1.17;;;0.70;;
2766;SDS011;1391;46.742;11.636;2022-09-12T12:27:46;2.67;;;0.60;;
2766;SDS011;1391;46.742;11.636;2022-09-12T12:36:40;2.65;;;0.75;;
2766;SDS011;1391;46.742;11.636;2022-09-12T12:46:00;0.70;;;0.68;;
2766;SDS011;1391;46.742;11.636;2022-09-12T12:48:45;3.37;;;0.50;;
2766;SDS011;1391;46.742;11.636;2022-09-12T12:51:22;0.80;;;0.60;;
2766;SDS011;1391;46.742;11.636;2022-09-12T12:53:59;1.80;;;0.40;;
2766;SDS011;1391;46.742;11.636;2022-09-12T12:56:33;0.70;;;0.50;;
2766;SDS011;1391;46.742;11.636;2022-09-12T12:59:12;1.43;;;0.60;;
2766;SDS011;1391;46.742;11.636;2022-09-12T13:01:48;0.67;;;0.57;;
2766;SDS011;1391;46.742;11.636;2022-09-12T13:04:19;0.67;;;0.43;;
2766;SDS011;1391;46.742;11.636;2022-09-12T13:06:54;1.97;;;0.70;;
2766;SDS011;1391;46.742;11.636;2022-09-12T13:09:26;1.60;;;0.50;;
2766;SDS011;1391;46.742;11.636;2022-09-12T13:11:59;0.67;;;0.30;;
2766;SDS011;1391;46.742;11.636;2022-09-12T13:14:35;0.67;;;0.40;;
2766;SDS011;1391;46.742;11.636;2022-09-12T13:17:27;1.33;;;0.40;;
2766;SDS011;1391;46.742;11.636;2022-09-12T13:20:11;0.60;;;0.50;;
2766;SDS011;1391;46.742;11.636;2022-09-12T13:22:45;0.60;;;0.37;;
2766;SDS011;1391;46.742;11.636;2022-09-12T13:25:20;0.80;;;0.50;;
2766;SDS011;1391;46.742;11.636;2022-09-12T13:27:55;0.50;;;0.50;;
2766;SDS011;1391;46.742;11.636;2022-09-12T13:30:30;2.40;;;0.60;;
2766;SDS011;1391;46.742;11.636;2022-09-12T13:33:06;0.53;;;0.50;;
2766;SDS011;1391;46.742;11.636;2022-09-12T13:35:54;0.80;;;0.40;;
2766;SDS011;1391;46.742;11.636;2022-09-12T13:39:07;1.10;;;0.50;;
2766;SDS011;1391;46.742;11.636;2022-09-12T13:41:47;2.40;;;0.40;;
2766;SDS011;1391;46.742;11.636;2022-09-12T13:45:10;2.53;;;0.60;;
2766;SDS011;1391;46.742;11.636;2022-09-12T13:47:42;0.83;;;0.53;;
2766;SDS011;1391;46.742;11.636;2022-09-12T13:50:13;1.03;;;0.50;;
2766;SDS011;1391;46.742;11.636;2022-09-12T13:52:44;0.63;;;0.50;;
2766;SDS011;1391;46.742;11.636;2022-09-12T13:55:22;1.37;;;0.40;;
2766;SDS011;1391;46.742;11.636;2022-09-12T13:57:55;0.47;;;0.30;;
2766;SDS011;1391;46.742;11.636;2022-09-12T14:00:27;1.27;;;0.60;;
2766;SDS011;1391;46.742;11.636;2022-09-12T14:02:58;1.53;;;0.57;;
2766;SDS011;1391;46.742;11.636;2022-09-12T14:05:43;0.50;;;0.40;;
2766;SDS011;1391;46.742;11.636;2022-09-12T14:08:19;0.40;;;0.40;;
2766;SDS011;1391;46.742;11.636;2022-09-12T14:10:47;0.20;;;0.20;;
2766;SDS011;1391;46.742;11.636;2022-09-12T14:13:17;0.43;;;0.43;;
2766;SDS011;1391;46.742;11.636;2022-09-12T14:15:48;1.83;;;0.40;;
2766;SDS011;1391;46.742;11.636;2022-09-12T14:18:23;2.93;;;0.60;;
2766;SDS011;1391;46.742;11.636;2022-09-12T14:20:52;4.27;;;0.40;;
2766;SDS011;1391;46.742;11.636;2022-09-12T14:23:24;1.60;;;0.30;;
2766;SDS011;1391;46.742;11.636;2022-09-12T14:25:53;1.90;;;0.50;;
2766;SDS011;1391;46.742;11.636;2022-09-12T14:28:24;0.60;;;0.60;;
2766;SDS011;1391;46.742;11.636;2022-09-12T14:31:01;1.70;;;0.50;;
2766;SDS011;1391;46.742;11.636;2022-09-12T14:33:39;0.70;;;0.50;;
2766;SDS011;1391;46.742;11.636;2022-09-12T14:36:16;1.77;;;0.50;;
2766;SDS011;1391;46.742;11.636;2022-09-12T14:38:48;1.03;;;0.60;;
2766;SDS011;1391;46.742;11.636;2022-09-12T14:41:21;0.47;;;0.47;;
2766;SDS011;1391;46.742;11.636;2022-09-12T14:43:53;1.63;;;0.60;;
2766;SDS011;1391;46.742;11.636;2022-09-12T14:46:26;0.97;;;0.57;;
2766;SDS011;1391;46.742;11.636;2022-09-12T14:48:59;2.60;;;0.40;;
2766;SDS011;1391;46.742;11.636;2022-09-12T14:51:34;6.53;;;0.60;;
2766;SDS011;1391;46.742;11.636;2022-09-12T14:54:04;3.63;;;0.50;;
2766;SDS011;1391;46.742;11.636;2022-09-12T14:56:38;1.20;;;0.47;;
2766;SDS011;1391;46.742;11.636;2022-09-12T14:59:25;2.20;;;0.50;;
2766;SDS011;1391;46.742;11.636;2022-09-12T15:02:17;4.43;;;0.50;;
2766;SDS011;1391;46.742;11.636;2022-09-12T15:04:53;0.50;;;0.40;;
2766;SDS011;1391;46.742;11.636;2022-09-12T15:07:41;0.40;;;0.37;;
2766;SDS011;1391;46.742;11.636;2022-09-12T15:10:15;0.80;;;0.60;;
2766;SDS011;1391;46.742;11.636;2022-09-12T15:12:47;1.70;;;0.30;;
2766;SDS011;1391;46.742;11.636;2022-09-12T15:15:15;0.57;;;0.50;;
2766;SDS011;1391;46.742;11.636;2022-09-12T15:17:44;0.40;;;0.40;;
2766;SDS011;1391;46.742;11.636;2022-09-12T15:20:13;1.63;;;0.40;;
2766;SDS011;1391;46.742;11.636;2022-09-12T15:22:40;0.57;;;0.43;;
2766;SDS011;1391;46.742;11.636;2022-09-12T15:25:08;0.47;;;0.47;;
2766;SDS011;1391;46.742;11.636;2022-09-12T15:27:38;0.87;;;0.43;;
2766;SDS011;1391;46.742;11.636;2022-09-12T15:30:06;0.87;;;0.50;;
2766;SDS011;1391;46.742;11.636;2022-09-12T15:32:37;2.00;;;0.43;;
2766;SDS011;1391;46.742;11.636;2022-09-12T15:35:07;1.20;;;0.33;;
2766;SDS011;1391;46.742;11.636;2022-09-12T15:37:39;0.50;;;0.33;;
2766;SDS011;1391;46.742;11.636;2022-09-12T15:40:07;3.83;;;0.70;;
2766;SDS011;1391;46.742;11.636;2022-09-12T15:42:37;2.10;;;0.60;;
2766;SDS011;1391;46.742;11.636;2022-09-12T15:45:09;1.90;;;0.50;;
2766;SDS011;1391;46.742;11.636;2022-09-12T15:47:43;0.93;;;0.50;;
2766;SDS011;1391;46.742;11.636;2022-09-12T15:50:11;2.47;;;0.40;;
2766;SDS011;1391;46.742;11.636;2022-09-12T15:52:40;4.33;;;0.40;;
2766;SDS011;1391;46.742;11.636;2022-09-12T15:55:09;0.47;;;0.47;;
2766;SDS011;1391;46.742;11.636;2022-09-12T15:57:42;1.80;;;0.63;;
2766;SDS011;1391;46.742;11.636;2022-09-12T16:00:10;3.50;;;1.17;;
2766;SDS011;1391;46.742;11.636;2022-09-12T16:02:38;0.80;;;0.60;;
2766;SDS011;1391;46.742;11.636;2022-09-12T16:05:09;2.63;;;0.50;;
2766;SDS011;1391;46.742;11.636;2022-09-12T16:07:42;1.23;;;0.60;;